createdAt,value
2023-07-25T00:01:18.075Z,1.90
2023-07-25T00:03:46.267Z,2.00
2023-07-25T00:06:14.439Z,1.70
2023-07-25T00:08:42.556Z,1.80
2023-07-25T00:11:14.830Z,1.90
2023-07-25T00:13:42.976Z,2.10
2023-07-25T00:16:11.125Z,2.10
2023-07-25T00:18:40.675Z,2.27
2023-07-25T00:21:08.788Z,2.37
2023-07-25T00:23:36.951Z,1.90
2023-07-25T00:26:05.134Z,2.63
2023-07-25T00:28:33.276Z,1.63
2023-07-25T00:31:07.793Z,2.10
2023-07-25T00:33:36.112Z,2.30
2023-07-25T00:36:06.109Z,2.80
2023-07-25T00:38:34.221Z,2.17
2023-07-25T00:41:02.310Z,2.27
2023-07-25T00:43:30.436Z,2.03
2023-07-25T00:45:58.686Z,2.30
2023-07-25T00:48:26.826Z,2.07
2023-07-25T00:50:55.008Z,2.30
2023-07-25T00:53:24.588Z,2.30
2023-07-25T00:55:52.750Z,2.07
2023-07-25T00:58:20.900Z,2.17
2023-07-25T01:00:49.057Z,1.90
2023-07-25T01:03:17.184Z,1.90
2023-07-25T01:05:46.328Z,2.50
2023-07-25T01:08:14.454Z,2.03
2023-07-25T01:10:44.421Z,2.27
2023-07-25T01:13:12.611Z,2.10
2023-07-25T01:15:40.820Z,2.10
2023-07-25T01:18:09.054Z,2.07
2023-07-25T01:20:37.782Z,1.90
2023-07-25T01:23:07.175Z,2.13
2023-07-25T01:25:36.745Z,2.53
2023-07-25T01:28:04.966Z,1.87
2023-07-25T01:30:33.165Z,2.10
2023-07-25T01:33:01.569Z,2.30
2023-07-25T01:35:29.727Z,2.03
2023-07-25T01:37:57.820Z,1.93
2023-07-25T01:40:25.934Z,1.90
2023-07-25T01:42:55.447Z,2.37
2023-07-25T01:45:23.877Z,2.30
2023-07-25T01:47:52.020Z,1.90
2023-07-25T01:50:20.273Z,2.00
2023-07-25T01:52:48.407Z,2.20
2023-07-25T01:55:16.712Z,2.30
2023-07-25T01:57:44.930Z,2.20
2023-07-25T02:00:15.065Z,1.97
2023-07-25T02:02:43.570Z,2.37
2023-07-25T02:05:11.861Z,2.10
2023-07-25T02:07:39.980Z,2.10
2023-07-25T02:10:09.202Z,2.50
2023-07-25T02:12:37.308Z,2.20
2023-07-25T02:15:05.933Z,2.37
2023-07-25T02:17:36.481Z,2.20
2023-07-25T02:20:05.605Z,2.23
2023-07-25T02:22:34.169Z,2.03
2023-07-25T02:25:02.269Z,1.93
2023-07-25T02:27:35.419Z,2.10
2023-07-25T02:30:03.879Z,2.20
2023-07-25T02:32:32.012Z,2.23
2023-07-25T02:35:01.628Z,1.93
2023-07-25T02:37:29.776Z,2.00
2023-07-25T02:39:57.883Z,2.20
2023-07-25T02:42:26.015Z,2.00
2023-07-25T02:44:54.234Z,2.13
2023-07-25T02:47:22.386Z,2.50
2023-07-25T02:49:50.505Z,2.03
2023-07-25T02:52:20.197Z,2.20
2023-07-25T02:54:48.436Z,2.30
2023-07-25T02:57:16.520Z,2.40
2023-07-25T02:59:44.743Z,2.20
2023-07-25T03:02:17.065Z,2.23
2023-07-25T03:04:45.177Z,2.30
2023-07-25T03:07:13.292Z,2.00
2023-07-25T03:09:42.818Z,2.20
2023-07-25T03:12:11.000Z,2.37
2023-07-25T03:14:39.169Z,2.37
2023-07-25T03:17:07.342Z,2.67
2023-07-25T03:19:35.422Z,2.30
2023-07-25T03:22:03.532Z,2.07
2023-07-25T03:24:31.896Z,2.60
2023-07-25T03:27:01.464Z,2.20
2023-07-25T03:29:29.615Z,2.47
2023-07-25T03:31:57.732Z,2.67
2023-07-25T03:34:29.151Z,2.60
2023-07-25T03:36:57.284Z,2.40
2023-07-25T03:39:25.402Z,3.33
2023-07-25T03:41:53.504Z,2.40
2023-07-25T03:44:23.013Z,2.53
2023-07-25T03:46:51.118Z,2.40
2023-07-25T03:49:19.270Z,2.23
2023-07-25T03:51:47.458Z,2.50
2023-07-25T03:54:15.560Z,2.73
2023-07-25T03:56:43.673Z,2.50
2023-07-25T03:59:11.776Z,2.47
2023-07-25T04:01:41.297Z,2.33
2023-07-25T04:04:09.501Z,2.40
2023-07-25T04:06:41.090Z,2.77
2023-07-25T04:09:09.209Z,2.80
2023-07-25T04:11:37.312Z,2.40
2023-07-25T04:14:05.431Z,2.50
2023-07-25T04:16:33.614Z,2.50
2023-07-25T04:19:03.134Z,2.30
2023-07-25T04:21:31.489Z,2.70
2023-07-25T04:23:59.806Z,2.90
2023-07-25T04:26:27.957Z,2.83
2023-07-25T04:28:56.082Z,2.40
2023-07-25T04:31:29.392Z,2.60
2023-07-25T04:33:57.762Z,3.00
2023-07-25T04:36:30.211Z,2.73
2023-07-25T04:38:58.519Z,3.10
2023-07-25T04:41:26.638Z,2.60
2023-07-25T04:43:54.810Z,3.00
2023-07-25T04:46:23.005Z,3.37
2023-07-25T04:48:51.101Z,3.30
2023-07-25T04:51:19.234Z,3.03
2023-07-25T04:53:48.706Z,2.60
2023-07-25T04:56:16.796Z,3.03
2023-07-25T04:58:44.903Z,2.83
2023-07-25T05:01:13.568Z,2.83
2023-07-25T05:03:41.991Z,2.90
2023-07-25T05:06:10.172Z,2.97
2023-07-25T05:08:37.284Z,2.97
2023-07-25T05:11:06.796Z,2.93
2023-07-25T05:13:34.947Z,3.17
2023-07-25T05:16:03.108Z,3.07
2023-07-25T05:18:31.241Z,3.03
2023-07-25T05:20:59.374Z,2.77
2023-07-25T05:23:27.491Z,2.60
2023-07-25T05:25:55.614Z,2.43
2023-07-25T05:28:25.094Z,2.70
2023-07-25T05:30:53.252Z,2.73
2023-07-25T05:33:21.361Z,3.57
2023-07-25T05:35:49.495Z,3.20
2023-07-25T05:38:23.166Z,2.90
2023-07-25T05:40:52.341Z,2.67
2023-07-25T05:43:20.532Z,2.90
2023-07-25T05:45:50.041Z,2.67
2023-07-25T05:48:18.233Z,3.40
2023-07-25T05:50:46.513Z,2.83
2023-07-25T05:53:14.611Z,3.40
2023-07-25T05:55:46.066Z,2.97
2023-07-25T05:58:15.603Z,2.80
2023-07-25T06:00:43.717Z,2.90
2023-07-25T06:03:14.087Z,2.60
2023-07-25T06:05:42.352Z,3.10
2023-07-25T06:08:10.607Z,2.97
2023-07-25T06:10:39.084Z,3.20
2023-07-25T06:13:07.953Z,2.50
2023-07-25T06:15:36.280Z,2.70
2023-07-25T06:18:04.625Z,2.73
2023-07-25T06:20:34.183Z,2.90
2023-07-25T06:23:02.348Z,2.40
2023-07-25T06:25:30.835Z,2.50
2023-07-25T06:27:59.235Z,2.47
2023-07-25T06:30:27.355Z,2.40
2023-07-25T06:32:59.428Z,2.83
2023-07-25T06:35:27.671Z,2.30
2023-07-25T06:37:57.180Z,2.47
2023-07-25T06:40:25.271Z,2.40
2023-07-25T06:42:53.384Z,2.50
2023-07-25T06:45:21.453Z,2.60
2023-07-25T06:47:49.667Z,2.77
2023-07-25T06:50:23.212Z,2.70
2023-07-25T06:52:51.332Z,2.43
2023-07-25T06:55:20.861Z,2.30
2023-07-25T06:57:49.018Z,2.30
2023-07-25T07:00:17.550Z,2.47
2023-07-25T07:02:45.737Z,2.37
2023-07-25T07:05:28.849Z,2.60
2023-07-25T07:07:57.870Z,2.73
2023-07-25T07:10:27.473Z,2.70
2023-07-25T07:12:55.878Z,2.90
2023-07-25T07:15:25.762Z,2.20
2023-07-25T07:17:54.303Z,2.43
2023-07-25T07:20:22.758Z,3.00
2023-07-25T07:22:50.848Z,2.60
2023-07-25T07:25:18.966Z,3.03
2023-07-25T07:27:48.438Z,2.90
2023-07-25T07:30:16.642Z,2.70
2023-07-25T07:32:44.760Z,2.60
2023-07-25T07:35:12.912Z,2.50
2023-07-25T07:37:41.016Z,3.20
2023-07-25T07:40:10.119Z,3.30
2023-07-25T07:42:38.252Z,2.50
2023-07-25T07:45:09.527Z,2.47
2023-07-25T07:47:37.673Z,2.20
2023-07-25T07:50:06.422Z,2.23
2023-07-25T07:52:42.578Z,2.70
2023-07-25T07:55:11.893Z,2.43
2023-07-25T07:57:41.806Z,2.53
2023-07-25T08:00:12.712Z,2.20
2023-07-25T08:02:41.023Z,2.23
2023-07-25T08:05:09.978Z,2.20
2023-07-25T08:07:38.145Z,2.20
2023-07-25T08:10:07.375Z,2.43
2023-07-25T08:12:35.542Z,2.57
2023-07-25T08:15:03.999Z,2.37
2023-07-25T08:17:33.672Z,2.20
2023-07-25T08:20:06.356Z,2.20
2023-07-25T08:22:34.546Z,2.50
2023-07-25T08:25:02.789Z,2.30
2023-07-25T08:27:30.948Z,2.10
2023-07-25T08:29:59.487Z,2.30
2023-07-25T08:32:27.773Z,1.73
2023-07-25T08:35:00.851Z,1.63
2023-07-25T08:37:28.985Z,1.70
2023-07-25T08:39:57.136Z,2.20
2023-07-25T08:42:26.717Z,1.97
2023-07-25T08:44:54.923Z,1.80
2023-07-25T08:47:26.072Z,1.60
2023-07-25T08:49:54.829Z,1.90
2023-07-25T08:52:24.337Z,2.10
2023-07-25T08:54:52.438Z,2.40
2023-07-25T08:57:20.769Z,2.23
2023-07-25T08:59:49.234Z,2.00
2023-07-25T09:02:18.648Z,1.80
2023-07-25T09:04:46.835Z,2.27
2023-07-25T09:07:15.065Z,1.87
2023-07-25T09:09:44.522Z,2.23
2023-07-25T09:12:12.928Z,2.10
2023-07-25T09:14:43.306Z,2.20
2023-07-25T09:17:11.428Z,2.30
2023-07-25T09:19:39.575Z,2.07
2023-07-25T09:22:07.875Z,2.00
2023-07-25T09:24:39.148Z,2.57
2023-07-25T09:27:16.683Z,2.43
2023-07-25T09:29:46.025Z,2.80
2023-07-25T09:32:20.222Z,2.27
2023-07-25T09:34:48.350Z,2.70
2023-07-25T09:37:17.749Z,3.10
2023-07-25T09:39:45.869Z,3.10
2023-07-25T09:42:15.499Z,3.27
2023-07-25T09:44:47.753Z,3.17
2023-07-25T09:47:15.896Z,3.53
2023-07-25T09:49:49.679Z,2.97
2023-07-25T09:52:17.975Z,2.83
2023-07-25T09:54:46.163Z,3.00
2023-07-25T09:57:15.668Z,2.80
2023-07-25T09:59:43.835Z,2.67
2023-07-25T10:02:12.413Z,2.90
2023-07-25T10:04:41.209Z,3.20
2023-07-25T10:07:09.432Z,3.17
2023-07-25T10:09:37.556Z,3.23
2023-07-25T10:12:07.518Z,3.23
2023-07-25T10:15:01.605Z,2.90
2023-07-25T10:17:29.749Z,2.63
2023-07-25T10:19:57.908Z,3.20
2023-07-25T10:22:36.062Z,2.60
2023-07-25T10:25:04.352Z,3.10
2023-07-25T10:27:32.509Z,2.70
2023-07-25T10:30:03.143Z,2.80
2023-07-25T10:32:47.220Z,2.70
2023-07-25T10:35:15.516Z,3.10
2023-07-25T10:37:44.448Z,2.93
2023-07-25T10:40:13.743Z,2.50
2023-07-25T10:43:04.282Z,2.93
2023-07-25T10:45:52.096Z,2.70
2023-07-25T10:48:36.402Z,2.70
2023-07-25T10:51:08.298Z,2.53
2023-07-25T10:53:36.795Z,2.97
2023-07-25T10:56:14.896Z,2.90
2023-07-25T10:59:04.967Z,2.67
2023-07-25T11:01:37.416Z,3.13
2023-07-25T11:04:24.805Z,2.73
2023-07-25T11:06:53.184Z,3.30
2023-07-25T11:09:21.571Z,3.10
2023-07-25T11:11:50.355Z,2.80
2023-07-25T11:14:18.966Z,2.90
2023-07-25T11:16:49.828Z,3.00
2023-07-25T11:19:18.054Z,2.70
2023-07-25T11:21:46.710Z,2.57
2023-07-25T11:24:14.914Z,2.80
2023-07-25T11:26:44.544Z,2.77
2023-07-25T11:29:14.169Z,2.77
2023-07-25T11:31:48.781Z,3.30
2023-07-25T11:34:19.791Z,2.33
2023-07-25T11:36:54.093Z,2.57
2023-07-25T11:39:22.319Z,2.50
2023-07-25T11:41:50.461Z,2.20
2023-07-25T11:44:20.148Z,2.30
2023-07-25T11:46:51.722Z,2.83
2023-07-25T11:49:35.696Z,2.70
2023-07-25T11:52:04.842Z,2.70
2023-07-25T11:54:33.210Z,2.40
2023-07-25T11:57:01.305Z,2.73
2023-07-25T11:59:29.991Z,2.53
2023-07-25T12:02:08.514Z,2.13
2023-07-25T12:04:43.448Z,2.40
2023-07-25T12:07:11.580Z,2.60
2023-07-25T12:09:39.788Z,2.50
2023-07-25T12:12:13.470Z,2.50
2023-07-25T12:14:42.387Z,2.20
2023-07-25T12:17:11.934Z,2.53
2023-07-25T12:19:40.080Z,2.63
2023-07-25T12:22:09.266Z,2.30
2023-07-25T12:24:43.626Z,3.00
2023-07-25T12:27:17.335Z,2.53
2023-07-25T12:29:45.898Z,2.33
2023-07-25T12:32:15.623Z,2.33
2023-07-25T12:34:43.758Z,2.20
2023-07-25T12:37:11.859Z,2.37
2023-07-25T12:39:40.496Z,2.60
2023-07-25T12:42:08.851Z,2.50
2023-07-25T12:44:37.253Z,2.50
2023-07-25T12:47:05.875Z,2.70
2023-07-25T12:49:36.948Z,2.70
2023-07-25T12:52:05.740Z,2.50
2023-07-25T12:54:35.966Z,2.57
2023-07-25T12:57:04.123Z,2.20
2023-07-25T12:59:32.259Z,2.40
2023-07-25T13:02:05.995Z,2.63
2023-07-25T13:04:34.330Z,2.00
2023-07-25T13:07:04.101Z,2.20
2023-07-25T13:09:32.214Z,1.90
2023-07-25T13:12:00.306Z,2.00
2023-07-25T13:14:28.453Z,2.40
2023-07-25T13:16:56.611Z,1.90
2023-07-25T13:19:24.726Z,1.90
2023-07-25T13:21:52.850Z,1.50
2023-07-25T13:24:22.466Z,1.87
2023-07-25T13:26:50.694Z,1.80
2023-07-25T13:29:18.820Z,1.80
2023-07-25T13:31:46.989Z,1.30
2023-07-25T13:34:15.099Z,1.83
2023-07-25T13:36:43.264Z,2.10
2023-07-25T13:39:11.435Z,1.63
2023-07-25T13:41:40.958Z,1.60
2023-07-25T13:44:09.148Z,1.57
2023-07-25T13:46:37.354Z,1.80
2023-07-25T13:49:05.553Z,1.50
2023-07-25T13:51:33.858Z,1.70
2023-07-25T13:54:02.224Z,2.00
2023-07-25T13:56:30.316Z,1.77
2023-07-25T13:58:59.817Z,1.60
2023-07-25T14:01:28.046Z,1.63
2023-07-25T14:03:56.197Z,1.60
2023-07-25T14:06:24.363Z,1.60
2023-07-25T14:08:53.992Z,1.40
2023-07-25T14:11:23.625Z,1.67
2023-07-25T14:13:51.833Z,1.37
2023-07-25T14:16:21.397Z,1.30
2023-07-25T14:18:49.610Z,1.10
2023-07-25T14:21:17.755Z,1.50
2023-07-25T14:23:45.912Z,1.50
2023-07-25T14:26:15.576Z,1.60
2023-07-25T14:28:47.722Z,1.20
2023-07-25T14:31:15.850Z,1.23
2023-07-25T14:33:45.365Z,1.57
2023-07-25T14:36:13.753Z,1.67
2023-07-25T14:38:43.156Z,1.27
2023-07-25T14:41:11.264Z,1.40
2023-07-25T14:43:39.395Z,1.30
2023-07-25T14:46:07.518Z,1.17
2023-07-25T14:48:35.697Z,1.60
2023-07-25T14:51:05.359Z,1.30
2023-07-25T14:53:33.764Z,1.60
2023-07-25T14:56:01.852Z,1.33
2023-07-25T14:58:30.035Z,1.60
2023-07-25T15:00:58.285Z,1.30
2023-07-25T15:03:29.765Z,1.90
2023-07-25T15:05:57.941Z,1.33
2023-07-25T15:08:27.455Z,1.07
2023-07-25T15:10:55.582Z,1.43
2023-07-25T15:13:23.692Z,1.17
2023-07-25T15:15:52.306Z,1.10
2023-07-25T15:18:20.419Z,1.50
2023-07-25T15:20:48.577Z,1.13
2023-07-25T15:23:16.671Z,1.63
2023-07-25T15:25:46.150Z,1.30
2023-07-25T15:28:14.242Z,1.43
2023-07-25T15:30:42.488Z,1.50
2023-07-25T15:33:12.211Z,1.10
2023-07-25T15:35:40.531Z,1.37
2023-07-25T15:38:08.608Z,1.20
2023-07-25T15:40:37.125Z,1.20
2023-07-25T15:43:09.675Z,1.10
2023-07-25T15:45:39.048Z,1.20
2023-07-25T15:48:07.609Z,1.10
2023-07-25T15:50:36.452Z,1.40
2023-07-25T15:53:04.612Z,1.20
2023-07-25T15:55:32.722Z,1.10
2023-07-25T15:58:00.890Z,1.60
2023-07-25T16:00:30.414Z,1.30
2023-07-25T16:02:58.618Z,1.07
2023-07-25T16:05:26.911Z,1.33
2023-07-25T16:07:55.018Z,1.07
2023-07-25T16:10:23.145Z,1.20
2023-07-25T16:12:51.230Z,1.27
2023-07-25T16:15:19.387Z,1.23
2023-07-25T16:17:48.994Z,1.07
2023-07-25T16:20:17.334Z,1.20
2023-07-25T16:22:45.443Z,1.40
2023-07-25T16:25:13.579Z,1.07
2023-07-25T16:27:41.673Z,0.93
2023-07-25T16:30:10.929Z,1.33
2023-07-25T16:32:41.801Z,1.00
2023-07-25T16:35:12.342Z,1.23
2023-07-25T16:37:41.890Z,1.17
2023-07-25T16:40:10.473Z,1.20
2023-07-25T16:42:38.819Z,1.10
2023-07-25T16:45:08.198Z,1.23
2023-07-25T16:47:36.383Z,1.00
2023-07-25T16:50:04.615Z,1.20
2023-07-25T16:52:35.589Z,1.10
2023-07-25T16:55:04.028Z,1.10
2023-07-25T16:57:34.955Z,1.20
2023-07-25T17:00:03.151Z,1.00
2023-07-25T17:02:31.449Z,1.17
2023-07-25T17:05:02.839Z,1.40
2023-07-25T17:07:30.951Z,1.20
2023-07-25T17:10:00.543Z,1.10
2023-07-25T17:12:28.689Z,1.00
2023-07-25T17:14:56.823Z,0.80
2023-07-25T17:17:24.934Z,1.00
2023-07-25T17:19:53.059Z,1.20
2023-07-25T17:22:21.154Z,1.07
2023-07-25T17:24:49.318Z,1.10
2023-07-25T17:27:18.985Z,1.03
2023-07-25T17:29:47.111Z,2.00
2023-07-25T17:32:15.318Z,0.90
2023-07-25T17:34:43.464Z,1.10
2023-07-25T17:37:13.065Z,0.87
2023-07-25T17:39:41.233Z,0.90
2023-07-25T17:42:09.829Z,0.83
2023-07-25T17:44:39.307Z,1.00
2023-07-25T17:47:07.712Z,0.80
2023-07-25T17:49:35.842Z,0.80
2023-07-25T17:52:04.026Z,0.80
2023-07-25T17:54:32.113Z,0.80
2023-07-25T17:57:00.275Z,0.90
2023-07-25T17:59:28.378Z,0.80
2023-07-25T18:01:57.908Z,1.10
2023-07-25T18:04:26.045Z,1.13
2023-07-25T18:06:54.168Z,0.90
2023-07-25T18:09:22.446Z,1.00
2023-07-25T18:11:50.625Z,0.77
2023-07-25T18:14:18.727Z,0.90
2023-07-25T18:16:46.941Z,0.83
2023-07-25T18:19:16.406Z,0.80
2023-07-25T18:21:44.595Z,0.90
2023-07-25T18:24:13.010Z,0.60
2023-07-25T18:26:41.136Z,0.80
2023-07-25T18:29:09.267Z,0.70
2023-07-25T18:31:37.455Z,0.80
2023-07-25T18:34:05.661Z,0.80
2023-07-25T18:36:35.113Z,0.80
2023-07-25T18:39:03.238Z,0.80
2023-07-25T18:41:31.675Z,0.80
2023-07-25T18:43:59.917Z,0.70
2023-07-25T18:46:28.074Z,0.80
2023-07-25T18:48:56.292Z,0.90
2023-07-25T18:51:24.470Z,0.63
2023-07-25T18:53:53.998Z,0.70
2023-07-25T18:56:22.151Z,0.60
2023-07-25T18:58:50.327Z,0.90
2023-07-25T19:01:18.455Z,0.70
2023-07-25T19:03:46.621Z,0.97
2023-07-25T19:06:14.808Z,0.70
2023-07-25T19:08:43.018Z,0.80
2023-07-25T19:11:12.582Z,0.67
2023-07-25T19:13:40.767Z,0.50
2023-07-25T19:16:08.974Z,0.77
2023-07-25T19:18:37.159Z,0.60
2023-07-25T19:21:05.466Z,0.73
2023-07-25T19:23:33.677Z,0.90
2023-07-25T19:26:02.085Z,0.80
2023-07-25T19:28:31.597Z,0.90
2023-07-25T19:30:59.844Z,1.03
2023-07-25T19:33:29.255Z,0.80
2023-07-25T19:35:58.176Z,0.70
2023-07-25T19:38:27.487Z,1.10
2023-07-25T19:40:55.850Z,0.77
2023-07-25T19:43:24.141Z,0.90
2023-07-25T19:45:55.325Z,0.80
2023-07-25T19:48:23.431Z,0.90
2023-07-25T19:50:51.567Z,0.87
2023-07-25T19:53:19.791Z,0.80
2023-07-25T19:55:54.401Z,0.77
2023-07-25T19:58:22.600Z,1.00
2023-07-25T20:00:50.754Z,0.90
2023-07-25T20:03:20.427Z,1.00
2023-07-25T20:05:49.529Z,0.80
2023-07-25T20:08:17.696Z,1.17
2023-07-25T20:10:45.824Z,0.90
2023-07-25T20:13:14.053Z,0.90
2023-07-25T20:15:42.322Z,0.80
2023-07-25T20:18:11.221Z,1.00
2023-07-25T20:20:43.544Z,1.10
2023-07-25T20:23:11.662Z,1.00
2023-07-25T20:25:39.780Z,1.23
2023-07-25T20:28:07.915Z,1.07
2023-07-25T20:30:36.054Z,1.10
2023-07-25T20:33:04.251Z,1.00
2023-07-25T20:35:32.386Z,1.50
2023-07-25T20:38:01.890Z,1.10
2023-07-25T20:40:30.015Z,1.10
2023-07-25T20:42:58.145Z,1.10
2023-07-25T20:45:26.306Z,1.27
2023-07-25T20:47:54.914Z,1.10
2023-07-25T20:50:23.037Z,1.20
2023-07-25T20:52:52.006Z,1.10
2023-07-25T20:55:21.617Z,1.27
2023-07-25T20:57:50.049Z,1.23
2023-07-25T21:00:18.229Z,1.30
2023-07-25T21:02:46.399Z,1.30
2023-07-25T21:05:15.390Z,1.30
2023-07-25T21:07:43.505Z,1.40
2023-07-25T21:10:12.064Z,1.20
2023-07-25T21:12:41.788Z,1.20
2023-07-25T21:15:10.503Z,1.20
2023-07-25T21:17:38.705Z,1.43
2023-07-25T21:20:08.133Z,1.20
2023-07-25T21:22:36.266Z,1.40
2023-07-25T21:25:05.997Z,1.40
2023-07-25T21:27:34.438Z,1.30
2023-07-25T21:30:04.036Z,1.63
2023-07-25T21:32:32.134Z,1.20
2023-07-25T21:35:00.274Z,1.30
2023-07-25T21:37:28.433Z,1.60
2023-07-25T21:39:56.533Z,1.40
2023-07-25T21:42:24.711Z,1.27
2023-07-25T21:44:52.861Z,1.23
2023-07-25T21:47:25.703Z,1.10
2023-07-25T21:49:54.000Z,1.33
2023-07-25T21:52:22.118Z,1.53
2023-07-25T21:54:50.221Z,1.00
2023-07-25T21:57:18.351Z,1.23
2023-07-25T21:59:46.446Z,1.30
2023-07-25T22:02:19.879Z,1.60
2023-07-25T22:04:49.374Z,1.70
2023-07-25T22:07:17.512Z,1.40
2023-07-25T22:09:45.631Z,1.37
2023-07-25T22:12:13.805Z,1.60
2023-07-25T22:14:41.917Z,1.60
2023-07-25T22:17:10.027Z,1.83
2023-07-25T22:19:38.187Z,1.63
2023-07-25T22:22:08.323Z,1.27
2023-07-25T22:24:36.459Z,1.90
2023-07-25T22:27:04.770Z,1.83
2023-07-25T22:29:32.888Z,1.73
2023-07-25T22:32:01.063Z,1.90
2023-07-25T22:34:29.227Z,1.67
2023-07-25T22:36:57.338Z,1.60
2023-07-25T22:39:26.804Z,1.93
2023-07-25T22:41:54.906Z,1.60
2023-07-25T22:44:23.001Z,1.80
2023-07-25T22:46:51.085Z,2.20
2023-07-25T22:49:19.199Z,1.90
2023-07-25T22:51:47.319Z,1.97
2023-07-25T22:54:15.440Z,1.93
2023-07-25T22:56:44.932Z,2.10
2023-07-25T22:59:13.445Z,2.03
2023-07-25T23:01:41.599Z,2.07
2023-07-25T23:04:09.776Z,2.10
2023-07-25T23:06:39.070Z,2.20
2023-07-25T23:09:07.222Z,2.03
2023-07-25T23:11:35.337Z,1.77
2023-07-25T23:14:04.868Z,2.00
2023-07-25T23:16:33.099Z,1.93
2023-07-25T23:19:01.490Z,2.03
2023-07-25T23:21:29.616Z,1.80
2023-07-25T23:23:58.164Z,2.30
2023-07-25T23:26:26.304Z,2.20
2023-07-25T23:28:54.437Z,1.80
2023-07-25T23:31:23.953Z,1.90
2023-07-25T23:33:52.133Z,2.30
2023-07-25T23:36:20.282Z,1.90
2023-07-25T23:38:48.424Z,1.97
2023-07-25T23:41:16.734Z,1.93
2023-07-25T23:43:44.856Z,1.80
2023-07-25T23:46:13.005Z,2.60
2023-07-25T23:48:42.499Z,2.13
2023-07-25T23:51:10.854Z,1.90
2023-07-25T23:53:38.998Z,2.00
2023-07-25T23:56:07.289Z,1.80
2023-07-25T23:58:35.527Z,1.83
